Time;durP1;ratioP1;P1;durP2;ratioP2;P2;SDS_P1;SDS_P2;PMS_P1;PMS_P2;Temp;Humidity;BMP_temperature;BMP_pressure;BME280_temperature;BME280_humidity;BME280_pressure;Samples;Min_cycle;Max_cycle;Signal;HPM_P1;HPM_P2
2022/04/10 00:00:17;;;;;;;6.13;1.70;;;19.70;44.00;;;;;;4499393;31;20095;-71
2022/04/10 00:02:44;;;;;;;3.22;1.30;;;19.70;44.10;;;;;;4526273;31;20160;-71
2022/04/10 00:05:10;;;;;;;4.70;1.42;;;19.70;44.10;;;;;;4539794;31;20602;-71
2022/04/10 00:07:36;;;;;;;4.90;1.70;;;19.70;44.10;;;;;;4540326;31;20110;-71
2022/04/10 00:10:02;;;;;;;7.28;1.80;;;19.70;44.20;;;;;;4540194;31;20072;-71
2022/04/10 00:12:28;;;;;;;5.03;1.40;;;19.70;44.20;;;;;;4540638;31;20088;-71
2022/04/10 00:14:54;;;;;;;6.38;1.58;;;19.60;44.20;;;;;;4541299;31;20091;-70
2022/04/10 00:17:19;;;;;;;4.78;1.30;;;19.60;44.20;;;;;;4539924;31;20092;-71
2022/04/10 00:19:46;;;;;;;6.13;1.52;;;19.60;44.20;;;;;;4540271;31;20234;-71
2022/04/10 00:22:12;;;;;;;8.60;1.50;;;19.60;44.20;;;;;;4539901;31;20525;-71
2022/04/10 00:24:38;;;;;;;4.72;1.50;;;19.60;44.30;;;;;;4540062;31;20100;-71
2022/04/10 00:27:05;;;;;;;4.88;1.50;;;19.60;44.30;;;;;;4540863;31;20199;-71
2022/04/10 00:29:31;;;;;;;6.00;1.60;;;19.60;44.30;;;;;;4540666;31;20064;-71
2022/04/10 00:31:57;;;;;;;4.22;1.48;;;19.50;44.20;;;;;;4540243;31;20071;-71
2022/04/10 00:34:23;;;;;;;4.85;1.20;;;19.50;44.30;;;;;;4539571;31;20151;-70
2022/04/10 00:36:49;;;;;;;4.20;1.55;;;19.50;44.30;;;;;;4539877;31;20484;-70
2022/04/10 00:39:15;;;;;;;5.38;1.75;;;19.50;44.30;;;;;;4539512;31;20085;-71
2022/04/10 00:41:41;;;;;;;5.50;1.50;;;19.50;44.30;;;;;;4513393;31;20131;-71
2022/04/10 00:44:10;;;;;;;4.35;1.42;;;19.40;44.40;;;;;;4540653;31;20086;-70
2022/04/10 00:46:38;;;;;;;5.07;1.52;;;19.40;44.30;;;;;;4526529;31;20841;-71
2022/04/10 00:49:05;;;;;;;5.57;1.52;;;19.40;44.30;;;;;;4539915;31;20111;-71
2022/04/10 00:51:40;;;;;;;6.25;1.65;;;19.40;44.40;;;;;;4539623;31;20080;-71
2022/04/10 00:54:17;;;;;;;6.18;1.63;;;19.40;44.40;;;;;;4524908;31;20091;-71
2022/04/10 00:56:44;;;;;;;4.60;1.30;;;19.40;44.40;;;;;;4539520;31;20080;-71
2022/04/10 00:59:11;;;;;;;5.95;1.58;;;19.40;44.40;;;;;;4540085;31;20100;-70
2022/04/10 01:01:39;;;;;;;4.32;1.73;;;19.40;44.40;;;;;;4540203;31;20087;-71
2022/04/10 01:04:06;;;;;;;5.65;1.58;;;19.40;44.40;;;;;;4525753;31;20509;-71
2022/04/10 01:06:35;;;;;;;2.95;1.08;;;19.30;44.40;;;;;;4525154;31;20072;-70
2022/04/10 01:09:03;;;;;;;7.15;1.67;;;19.30;44.40;;;;;;4540467;31;20072;-70
2022/04/10 01:11:30;;;;;;;4.03;1.60;;;19.30;44.40;;;;;;4525926;31;20103;-71
2022/04/10 01:13:56;;;;;;;5.57;1.17;;;19.30;44.50;;;;;;4540438;31;20086;-70
2022/04/10 01:16:22;;;;;;;4.30;1.35;;;19.30;44.50;;;;;;4539214;31;20669;-70
2022/04/10 01:18:50;;;;;;;8.25;1.60;;;19.30;44.50;;;;;;4539078;31;20476;-71
2022/04/10 01:21:23;;;;;;;5.57;1.67;;;19.30;44.50;;;;;;4524724;31;20150;-70
2022/04/10 01:23:50;;;;;;;5.53;1.48;;;19.30;44.50;;;;;;4524413;31;20120;-70
2022/04/10 01:26:16;;;;;;;5.85;1.50;;;19.30;44.50;;;;;;4539590;31;20138;-70
2022/04/10 01:29:17;;;;;;;5.00;1.38;;;19.30;44.60;;;;;;4540263;31;20076;-70
2022/04/10 01:31:46;;;;;;;3.53;1.20;;;19.20;44.50;;;;;;4433234;32;20104;-70
2022/04/10 01:34:13;;;;;;;3.53;1.65;;;19.20;44.50;;;;;;4524329;31;20151;-70
2022/04/10 01:36:40;;;;;;;4.70;1.55;;;19.20;44.50;;;;;;4540394;31;20409;-70
2022/04/10 01:39:08;;;;;;;5.03;1.25;;;19.20;44.60;;;;;;4540241;31;20398;-70
2022/04/10 01:41:34;;;;;;;6.43;1.70;;;19.20;44.50;;;;;;4539700;31;20071;-70
2022/04/10 01:44:03;;;;;;;4.35;1.25;;;19.20;44.60;;;;;;4539742;31;20098;-71
2022/04/10 01:46:30;;;;;;;4.90;1.30;;;19.20;44.60;;;;;;4540112;31;20647;-70
2022/04/10 01:48:57;;;;;;;4.18;1.10;;;19.20;44.60;;;;;;4539945;31;20068;-70
2022/04/10 01:51:24;;;;;;;5.40;1.38;;;19.20;44.60;;;;;;4539879;31;20160;-70
2022/04/10 01:53:51;;;;;;;4.82;1.25;;;19.20;44.70;;;;;;4525299;31;20143;-70
2022/04/10 01:56:17;;;;;;;7.68;1.80;;;19.10;44.60;;;;;;4539620;31;20080;-71
2022/04/10 01:58:46;;;;;;;5.28;1.25;;;19.10;44.60;;;;;;4539045;31;20104;-71
2022/04/10 02:01:15;;;;;;;4.57;1.38;;;19.10;44.60;;;;;;4538657;31;20229;-70
2022/04/10 02:03:41;;;;;;;4.47;1.33;;;19.10;44.60;;;;;;4538185;31;20091;-70
2022/04/10 02:06:09;;;;;;;3.90;1.33;;;19.10;44.60;;;;;;4538296;31;20096;-70
2022/04/10 02:08:35;;;;;;;3.95;1.40;;;19.10;44.60;;;;;;4539347;31;20076;-71
2022/04/10 02:11:09;;;;;;;4.57;1.58;;;19.10;44.70;;;;;;4538138;31;20160;-70
2022/04/10 02:13:35;;;;;;;4.03;1.23;;;19.10;44.70;;;;;;4539888;31;20064;-70
2022/04/10 02:16:00;;;;;;;4.15;1.23;;;19.00;44.70;;;;;;4525188;31;20087;-70
2022/04/10 02:18:26;;;;;;;5.85;1.63;;;19.10;44.70;;;;;;4539521;31;20064;-70
2022/04/10 02:20:52;;;;;;;3.65;1.20;;;19.00;44.70;;;;;;4539701;31;20072;-70
2022/04/10 02:23:18;;;;;;;3.55;1.15;;;19.10;44.80;;;;;;4511850;31;20482;-70
2022/04/10 02:25:43;;;;;;;5.07;1.45;;;19.00;44.70;;;;;;4539177;31;20076;-70
2022/04/10 02:28:09;;;;;;;4.15;1.40;;;19.00;44.70;;;;;;4539185;31;20879;-70
2022/04/10 02:30:35;;;;;;;3.50;1.00;;;19.00;44.70;;;;;;4525025;31;20210;-70
2022/04/10 02:33:01;;;;;;;4.95;1.40;;;19.00;44.70;;;;;;4524869;31;20551;-70
2022/04/10 02:35:27;;;;;;;4.35;1.27;;;19.00;44.80;;;;;;4539174;31;20068;-71
2022/04/10 02:37:52;;;;;;;4.45;1.38;;;19.00;44.80;;;;;;4525038;31;20060;-70
2022/04/10 02:40:18;;;;;;;4.00;1.30;;;19.00;44.80;;;;;;4524855;31;20118;-70
2022/04/10 02:42:44;;;;;;;3.42;1.25;;;19.00;44.80;;;;;;4524893;31;20064;-71
2022/04/10 02:45:11;;;;;;;3.97;1.30;;;18.90;44.80;;;;;;4525046;31;20417;-70
2022/04/10 02:47:37;;;;;;;4.15;1.27;;;19.00;44.80;;;;;;4539425;31;20076;-70
2022/04/10 02:50:05;;;;;;;3.13;1.33;;;18.90;44.80;;;;;;4539118;31;20087;-70
2022/04/10 02:52:31;;;;;;;4.75;1.55;;;18.90;44.80;;;;;;4524725;31;20238;-70
2022/04/10 02:54:57;;;;;;;4.13;1.48;;;18.90;44.80;;;;;;4525131;31;20068;-70
2022/04/10 02:57:22;;;;;;;4.47;1.30;;;18.90;44.80;;;;;;4539009;31;20072;-70
2022/04/10 02:59:48;;;;;;;6.03;1.30;;;18.90;44.90;;;;;;4539331;31;20135;-70
2022/04/10 03:02:14;;;;;;;3.85;1.45;;;18.90;44.80;;;;;;4538999;31;20079;-71
2022/04/10 03:04:40;;;;;;;3.30;1.02;;;18.90;44.90;;;;;;4538946;31;20064;-70
2022/04/10 03:07:06;;;;;;;3.17;0.95;;;18.90;44.90;;;;;;4539095;31;20123;-70
2022/04/10 03:09:32;;;;;;;4.40;1.30;;;18.80;44.90;;;;;;4539183;31;20068;-70
2022/04/10 03:11:58;;;;;;;3.80;0.95;;;18.80;44.90;;;;;;4539272;31;20076;-70
2022/04/10 03:14:24;;;;;;;4.15;1.27;;;18.80;44.90;;;;;;4539148;31;20088;-71
2022/04/10 03:16:49;;;;;;;4.32;1.10;;;18.80;44.90;;;;;;4537738;31;20106;-71
2022/04/10 03:19:15;;;;;;;4.35;1.25;;;18.80;44.90;;;;;;4538074;31;20086;-70
2022/04/10 03:21:41;;;;;;;3.45;1.23;;;18.80;44.90;;;;;;4537970;31;20222;-71
2022/04/10 03:24:07;;;;;;;3.45;1.02;;;18.80;44.90;;;;;;4537934;31;20061;-70
2022/04/10 03:26:34;;;;;;;3.58;1.25;;;18.80;44.90;;;;;;4524720;31;20091;-71
2022/04/10 03:29:00;;;;;;;2.85;0.90;;;18.80;44.90;;;;;;4525304;31;20601;-70
2022/04/10 03:31:26;;;;;;;3.50;1.13;;;18.80;44.90;;;;;;4542029;31;20091;-70
2022/04/10 03:33:52;;;;;;;2.40;0.98;;;18.80;45.00;;;;;;4542094;31;20084;-70
2022/04/10 03:36:17;;;;;;;2.85;1.05;;;18.80;45.00;;;;;;4541583;31;20548;-70
2022/04/10 03:38:43;;;;;;;4.13;1.20;;;18.70;45.80;;;;;;4541975;31;20381;-70
2022/04/10 03:41:09;;;;;;;2.47;1.02;;;18.80;45.00;;;;;;4541888;31;20122;-70
2022/04/10 03:43:35;;;;;;;4.00;1.20;;;18.70;45.00;;;;;;4542052;31;20192;-70
2022/04/10 03:46:02;;;;;;;2.60;0.90;;;18.70;45.00;;;;;;4527186;31;20111;-70
2022/04/10 03:48:28;;;;;;;2.78;0.90;;;18.70;45.00;;;;;;4541789;31;20493;-70
2022/04/10 03:50:55;;;;;;;3.25;0.90;;;18.70;45.00;;;;;;4541818;31;20517;-70
2022/04/10 03:53:21;;;;;;;2.92;0.93;;;18.70;45.10;;;;;;4541718;31;20096;-70
2022/04/10 03:55:47;;;;;;;3.38;1.20;;;18.70;45.10;;;;;;4541826;31;20363;-70
2022/04/10 03:58:14;;;;;;;3.40;0.90;;;18.70;45.10;;;;;;4541223;31;20185;-71
2022/04/10 04:00:40;;;;;;;3.63;1.17;;;18.70;45.10;;;;;;4527249;31;20197;-70
2022/04/10 04:03:06;;;;;;;4.07;1.13;;;18.70;45.10;;;;;;4541579;31;20463;-71
2022/04/10 04:05:32;;;;;;;2.20;0.82;;;18.70;45.10;;;;;;4526329;31;20086;-70
2022/04/10 04:07:58;;;;;;;2.63;1.00;;;18.60;45.10;;;;;;4541604;31;20235;-70
2022/04/10 04:10:24;;;;;;;3.35;1.00;;;18.60;45.10;;;;;;4540952;31;20159;-70
2022/04/10 04:12:50;;;;;;;3.30;1.10;;;18.60;45.20;;;;;;4541847;31;20188;-70
2022/04/10 04:15:16;;;;;;;1.92;0.88;;;18.60;45.10;;;;;;4513689;31;20528;-71
2022/04/10 04:17:42;;;;;;;3.15;1.02;;;18.60;45.10;;;;;;4541382;31;20068;-70
2022/04/10 04:20:09;;;;;;;3.10;0.90;;;18.60;45.20;;;;;;4541331;31;20706;-70
2022/04/10 04:22:35;;;;;;;2.13;1.02;;;18.60;45.20;;;;;;4526659;31;20072;-70
2022/04/10 04:25:02;;;;;;;3.90;1.20;;;18.60;45.20;;;;;;4541172;31;20076;-70
2022/04/10 04:27:28;;;;;;;1.88;0.90;;;18.60;45.20;;;;;;4541270;31;20086;-70
2022/04/10 04:29:53;;;;;;;2.80;1.00;;;18.60;45.20;;;;;;4540869;31;20413;-70
2022/04/10 04:32:19;;;;;;;1.90;0.90;;;18.60;45.20;;;;;;4540691;31;20246;-70
2022/04/10 04:34:47;;;;;;;3.03;1.33;;;18.60;45.20;;;;;;4540815;31;20072;-70
2022/04/10 04:37:13;;;;;;;1.98;0.80;;;18.60;45.20;;;;;;4540871;31;20165;-70
2022/04/10 04:39:40;;;;;;;2.35;0.75;;;18.50;45.10;;;;;;4541081;31;20302;-70
2022/04/10 04:42:06;;;;;;;3.33;0.80;;;18.50;45.20;;;;;;4511994;31;20072;-70
2022/04/10 04:44:32;;;;;;;1.83;0.70;;;18.50;45.20;;;;;;4540714;31;20556;-70
2022/04/10 04:46:59;;;;;;;2.75;0.95;;;18.50;45.20;;;;;;4540911;31;20111;-70
2022/04/10 04:49:26;;;;;;;2.17;0.65;;;18.50;45.20;;;;;;4540808;31;20099;-70
2022/04/10 04:51:52;;;;;;;2.58;0.85;;;18.50;45.20;;;;;;4525959;31;20076;-71
2022/04/10 04:54:17;;;;;;;3.35;1.02;;;18.50;45.20;;;;;;4541411;31;20103;-70
2022/04/10 04:56:43;;;;;;;2.97;0.98;;;18.50;45.20;;;;;;4526158;31;20146;-70
2022/04/10 04:59:10;;;;;;;2.60;0.98;;;18.50;45.20;;;;;;4525936;31;20104;-70
2022/04/10 05:01:36;;;;;;;3.92;0.95;;;18.50;45.20;;;;;;4512917;31;20498;-70
2022/04/10 05:04:02;;;;;;;2.15;0.80;;;18.50;45.30;;;;;;4540567;31;20078;-70
2022/04/10 05:06:28;;;;;;;2.60;1.00;;;18.50;45.20;;;;;;4539837;31;20088;-70
2022/04/10 05:08:53;;;;;;;3.47;0.90;;;18.40;45.20;;;;;;4512728;31;20064;-70
2022/04/10 05:11:19;;;;;;;2.00;0.77;;;18.40;45.20;;;;;;4540455;31;20100;-70
2022/04/10 05:13:45;;;;;;;2.58;0.73;;;18.40;45.20;;;;;;4540529;31;20060;-70
2022/04/10 05:16:11;;;;;;;3.20;0.88;;;18.40;45.20;;;;;;4540354;31;20088;-70
2022/04/10 05:18:37;;;;;;;3.95;0.90;;;18.40;45.20;;;;;;4540548;31;20152;-69
2022/04/10 05:21:03;;;;;;;2.20;0.65;;;18.40;45.20;;;;;;4540110;31;20079;-70
2022/04/10 05:23:30;;;;;;;2.35;0.70;;;18.40;45.30;;;;;;4540264;31;20111;-70
2022/04/10 05:25:56;;;;;;;1.80;0.68;;;18.40;45.30;;;;;;4540312;31;20560;-70
2022/04/10 05:28:22;;;;;;;1.83;0.70;;;18.40;45.30;;;;;;4540395;31;20209;-70
2022/04/10 05:30:48;;;;;;;2.67;0.95;;;18.40;45.30;;;;;;4540240;31;20072;-70
2022/04/10 05:33:14;;;;;;;3.03;0.90;;;18.40;45.30;;;;;;4539983;31;20214;-70
2022/04/10 05:35:40;;;;;;;4.97;1.23;;;18.40;45.30;;;;;;4538354;31;20124;-70
2022/04/10 05:38:06;;;;;;;2.55;0.80;;;18.40;45.40;;;;;;4538942;31;20087;-71
2022/04/10 05:40:32;;;;;;;2.70;0.95;;;18.30;45.30;;;;;;4538767;31;20098;-70
2022/04/10 05:42:58;;;;;;;1.55;0.63;;;18.40;45.30;;;;;;4524529;31;20084;-70
2022/04/10 05:45:24;;;;;;;2.67;0.98;;;18.30;45.30;;;;;;4525404;31;20100;-70
2022/04/10 05:47:51;;;;;;;2.88;0.88;;;18.30;45.30;;;;;;4539780;31;20072;-70
2022/04/10 05:50:16;;;;;;;2.60;0.98;;;18.30;45.30;;;;;;4539771;31;20177;-70
2022/04/10 05:52:44;;;;;;;2.53;0.93;;;18.30;45.30;;;;;;4539646;31;20068;-70
2022/04/10 05:55:12;;;;;;;2.95;0.70;;;18.30;45.30;;;;;;4539302;31;20156;-70
2022/04/10 05:57:39;;;;;;;2.30;0.73;;;18.30;45.30;;;;;;4540005;31;20115;-70
2022/04/10 06:00:13;;;;;;;2.20;0.60;;;18.30;45.30;;;;;;4539955;31;20064;-70
2022/04/10 06:02:40;;;;;;;1.92;0.80;;;18.30;45.30;;;;;;4539675;31;20079;-70
2022/04/10 06:05:07;;;;;;;2.13;0.75;;;18.20;45.30;;;;;;4539665;31;20385;-70
2022/04/10 06:07:33;;;;;;;2.28;0.93;;;18.30;45.30;;;;;;4539731;31;20076;-70
2022/04/10 06:09:59;;;;;;;3.35;0.80;;;18.20;45.30;;;;;;4539763;31;20082;-70
2022/04/10 06:12:28;;;;;;;1.13;0.60;;;18.20;45.30;;;;;;4539708;31;20103;-70
2022/04/10 06:14:57;;;;;;;2.67;0.88;;;18.20;45.30;;;;;;4539486;31;20075;-70
2022/04/10 06:17:23;;;;;;;1.83;0.60;;;18.20;45.30;;;;;;4539126;31;20512;-71
2022/04/10 06:19:49;;;;;;;2.67;0.70;;;18.20;45.40;;;;;;4527756;31;20142;-71
2022/04/10 06:22:15;;;;;;;1.88;0.77;;;18.20;45.40;;;;;;4537016;31;20068;-70
2022/04/10 06:24:41;;;;;;;2.50;0.77;;;18.20;45.40;;;;;;4538933;31;20158;-70
2022/04/10 06:27:07;;;;;;;1.70;0.65;;;18.20;45.40;;;;;;4539398;31;20205;-70
2022/04/10 06:29:33;;;;;;;2.67;0.77;;;18.20;45.40;;;;;;4525644;31;20622;-70
2022/04/10 06:31:59;;;;;;;2.30;0.70;;;18.20;45.40;;;;;;4536190;31;20086;-70
2022/04/10 06:34:24;;;;;;;1.58;0.80;;;18.20;45.40;;;;;;4534685;31;20076;-71
2022/04/10 06:36:50;;;;;;;1.83;0.88;;;18.20;45.40;;;;;;4510689;31;20572;-71
2022/04/10 06:39:16;;;;;;;1.70;0.65;;;18.20;45.50;;;;;;4522590;31;20078;-71
2022/04/10 06:41:42;;;;;;;0.95;0.52;;;18.20;45.50;;;;;;4522574;31;20061;-71
2022/04/10 06:44:09;;;;;;;2.30;0.65;;;18.20;45.50;;;;;;4505928;31;20068;-71
2022/04/10 06:46:34;;;;;;;3.42;0.60;;;18.20;45.50;;;;;;4522912;31;20099;-70
2022/04/10 06:49:01;;;;;;;2.22;0.60;;;18.20;45.50;;;;;;4524913;31;20083;-70
2022/04/10 06:51:27;;;;;;;2.40;0.88;;;18.20;45.50;;;;;;4522896;31;20064;-71
2022/04/10 06:53:53;;;;;;;2.20;0.73;;;18.20;45.50;;;;;;4511979;31;20226;-71
2022/04/10 06:56:19;;;;;;;2.15;0.60;;;18.30;45.60;;;;;;4522514;31;20498;-74
2022/04/10 06:58:45;;;;;;;1.88;0.63;;;18.20;45.50;;;;;;4522606;31;20494;-72
2022/04/10 07:01:10;;;;;;;2.42;0.80;;;18.30;45.60;;;;;;4508119;31;20648;-71
2022/04/10 07:03:36;;;;;;;1.75;0.63;;;18.30;45.60;;;;;;4508185;31;20513;-70
2022/04/10 07:06:03;;;;;;;1.60;0.60;;;18.30;45.60;;;;;;4525086;31;20228;-70
2022/04/10 07:08:29;;;;;;;2.42;0.60;;;18.30;45.60;;;;;;4512152;31;20087;-70
2022/04/10 07:10:55;;;;;;;1.98;0.90;;;18.20;45.60;;;;;;4526289;31;20065;-70
2022/04/10 07:13:22;;;;;;;2.65;0.80;;;18.20;45.60;;;;;;4526105;31;20096;-71
2022/04/10 07:15:52;;;;;;;3.42;0.93;;;18.30;46.60;;;;;;4512002;31;20086;-70
2022/04/10 07:18:19;;;;;;;1.58;0.70;;;18.30;45.70;;;;;;4526183;31;20073;-70
2022/04/10 07:20:45;;;;;;;2.40;0.90;;;18.30;45.70;;;;;;4526696;31;20156;-74
2022/04/10 07:25:56;;;;;;;3.33;0.73;;;18.30;45.70;;;;;;4532039;31;20115;-71
2022/04/10 07:28:21;;;;;;;2.80;0.95;;;18.30;45.60;;;;;;4517677;31;20056;-70
2022/04/10 07:30:48;;;;;;;5.55;0.90;;;18.30;45.60;;;;;;4527528;31;20300;-71
2022/04/10 07:33:14;;;;;;;2.65;0.70;;;18.40;45.50;;;;;;4497115;31;20155;-72
2022/04/10 07:35:40;;;;;;;5.40;1.23;;;18.40;45.50;;;;;;4524535;31;20439;-71
2022/04/10 07:38:07;;;;;;;12.50;1.00;;;18.40;45.60;;;;;;4524427;31;20429;-70
2022/04/10 07:40:34;;;;;;;3.67;1.00;;;18.40;45.70;;;;;;4524526;31;20120;-71
2022/04/10 07:43:00;;;;;;;5.20;1.15;;;18.40;45.70;;;;;;4524723;31;20136;-71
2022/04/10 07:48:11;;;;;;;5.93;1.15;;;18.40;45.70;;;;;;4525338;31;20188;-72
2022/04/10 07:50:37;;;;;;;3.50;1.10;;;18.40;45.80;;;;;;4524728;31;20097;-72
2022/04/10 07:53:03;;;;;;;3.75;1.13;;;18.50;45.90;;;;;;4525055;31;20075;-72
2022/04/10 07:55:29;;;;;;;4.13;1.00;;;18.50;45.80;;;;;;4524207;31;20110;-72
2022/04/10 07:57:55;;;;;;;3.60;1.10;;;18.50;45.80;;;;;;4509777;31;20383;-71
2022/04/10 08:00:21;;;;;;;4.10;1.52;;;18.50;45.70;;;;;;4525814;31;20087;-71
2022/04/10 08:02:50;;;;;;;3.97;0.82;;;18.50;45.70;;;;;;4525400;31;20098;-71
2022/04/10 08:05:18;;;;;;;3.05;0.93;;;18.50;45.80;;;;;;4525246;31;20100;-70
2022/04/10 08:07:44;;;;;;;5.05;1.17;;;18.50;45.80;;;;;;4525318;31;20218;-70
2022/04/10 08:10:12;;;;;;;4.00;1.10;;;18.50;45.80;;;;;;4511112;31;20258;-70
2022/04/10 08:12:39;;;;;;;4.43;0.80;;;18.50;45.80;;;;;;4525499;31;20398;-70
2022/04/10 08:15:05;;;;;;;3.83;1.00;;;18.50;45.70;;;;;;4525061;31;20510;-71
2022/04/10 08:17:31;;;;;;;4.30;0.93;;;18.50;45.60;;;;;;4525574;31;20081;-70
2022/04/10 08:19:57;;;;;;;5.90;1.60;;;18.50;45.60;;;;;;4525019;31;20083;-70
2022/04/10 08:22:26;;;;;;;4.20;1.45;;;18.50;45.50;;;;;;4510778;31;20064;-71
2022/04/10 08:24:53;;;;;;;4.75;1.20;;;18.50;45.40;;;;;;4525286;31;20072;-70
2022/04/10 08:27:19;;;;;;;6.18;1.38;;;18.50;45.40;;;;;;4524888;31;20092;-70
2022/04/10 08:29:46;;;;;;;6.82;1.90;;;18.50;45.30;;;;;;4525167;31;20228;-69
2022/04/10 08:32:12;;;;;;;4.45;1.25;;;18.50;45.30;;;;;;4510422;31;20087;-70
2022/04/10 08:34:38;;;;;;;6.55;1.23;;;18.60;45.30;;;;;;4524982;31;20068;-71
2022/04/10 08:37:05;;;;;;;7.05;1.70;;;18.60;45.20;;;;;;4524557;31;20064;-71
2022/04/10 08:39:35;;;;;;;5.97;1.60;;;18.60;45.20;;;;;;4524682;31;20102;-71
2022/04/10 08:42:04;;;;;;;6.68;1.33;;;18.60;45.10;;;;;;4510045;31;20119;-71
2022/04/10 08:44:30;;;;;;;4.78;1.50;;;18.60;45.10;;;;;;4523497;31;20076;-71
2022/04/10 08:46:57;;;;;;;6.20;1.33;;;18.60;45.10;;;;;;4524810;31;20233;-70
2022/04/10 08:49:29;;;;;;;6.07;1.50;;;18.70;45.00;;;;;;4524835;31;20060;-71
2022/04/10 08:51:58;;;;;;;7.07;1.67;;;18.70;44.90;;;;;;4524207;31;20084;-71
2022/04/10 08:54:25;;;;;;;5.90;1.30;;;18.70;44.80;;;;;;4526436;31;20072;-70
2022/04/10 08:56:51;;;;;;;4.90;1.20;;;18.70;44.70;;;;;;4524551;31;20081;-71
2022/04/10 08:59:21;;;;;;;5.22;1.10;;;18.70;44.60;;;;;;4524581;31;20226;-71
2022/04/10 09:01:53;;;;;;;4.68;1.08;;;18.80;44.60;;;;;;4524397;31;20414;-70
2022/04/10 09:04:20;;;;;;;3.15;0.95;;;18.70;44.30;;;;;;4524551;31;20222;-70
2022/04/10 09:07:16;;;;;;;3.92;1.17;;;18.80;44.30;;;;;;4510080;31;20076;-71
2022/04/10 09:09:52;;;;;;;3.28;1.10;;;18.80;44.00;;;;;;4493495;31;20249;-70
2022/04/10 09:12:18;;;;;;;5.72;1.20;;;18.80;44.20;;;;;;4509993;31;20079;-70
2022/04/10 09:14:44;;;;;;;5.38;1.30;;;18.80;44.10;;;;;;4524394;31;20060;-70
2022/04/10 09:17:12;;;;;;;14.85;1.25;;;18.80;43.90;;;;;;4510069;31;20111;-70
2022/04/10 09:19:43;;;;;;;4.80;1.20;;;18.90;43.90;;;;;;4510008;31;20088;-70
2022/04/10 09:22:30;;;;;;;5.57;1.10;;;18.90;43.80;;;;;;4524206;31;20169;-70
2022/04/10 09:25:11;;;;;;;5.90;1.40;;;18.90;43.70;;;;;;4524145;31;20103;-70
2022/04/10 09:27:43;;;;;;;4.60;1.08;;;18.90;43.60;;;;;;4523899;31;20130;-70
2022/04/10 09:30:19;;;;;;;4.70;1.10;;;18.90;43.60;;;;;;4523983;31;20210;-70
2022/04/10 09:32:50;;;;;;;5.30;1.10;;;18.90;43.60;;;;;;4524130;31;20401;-70
2022/04/10 09:35:19;;;;;;;5.20;1.30;;;18.90;43.60;;;;;;4496414;31;20131;-70
2022/04/10 09:37:52;;;;;;;5.90;1.00;;;18.90;43.50;;;;;;4524396;31;20501;-70
2022/04/10 09:40:31;;;;;;;5.50;1.10;;;18.90;43.30;;;;;;4539659;31;20088;-70
2022/04/10 09:43:05;;;;;;;6.55;1.38;;;18.90;43.20;;;;;;4539535;31;20084;-70
2022/04/10 09:45:34;;;;;;;4.55;1.15;;;18.90;43.10;;;;;;4540150;31;20300;-70
2022/04/10 09:48:24;;;;;;;4.97;1.30;;;18.90;43.10;;;;;;4539742;31;20744;-71
2022/04/10 09:50:52;;;;;;;6.43;1.00;;;18.90;42.90;;;;;;4525220;31;20192;-70
2022/04/10 09:53:20;;;;;;;7.50;1.10;;;18.90;43.00;;;;;;4539850;31;20068;-70
2022/04/10 09:55:53;;;;;;;5.40;1.17;;;18.90;43.00;;;;;;4525330;31;20531;-71
2022/04/10 09:58:20;;;;;;;4.68;1.08;;;18.90;42.90;;;;;;4525977;31;20128;-70
2022/04/10 10:00:47;;;;;;;4.07;0.90;;;18.90;42.90;;;;;;4507637;31;20072;-70
2022/04/10 10:03:14;;;;;;;3.63;1.02;;;18.90;42.80;;;;;;4524153;31;20093;-71
2022/04/10 10:05:40;;;;;;;2.38;1.00;;;18.80;42.60;;;;;;4496102;31;20269;-71
2022/04/10 10:08:07;;;;;;;4.68;1.15;;;18.80;42.60;;;;;;4522254;31;20096;-70
2022/04/10 10:10:37;;;;;;;3.33;1.00;;;18.80;42.50;;;;;;4523859;31;20244;-70
2022/04/10 10:13:07;;;;;;;5.90;0.82;;;18.80;42.40;;;;;;4532186;31;20076;-70
2022/04/10 10:15:36;;;;;;;4.15;1.00;;;18.80;42.40;;;;;;4523092;31;20108;-71
2022/04/10 10:18:08;;;;;;;5.72;0.75;;;18.80;42.40;;;;;;4527504;31;20072;-71
2022/04/10 10:20:34;;;;;;;2.03;0.73;;;18.80;42.40;;;;;;4537624;31;20080;-70
2022/04/10 10:23:07;;;;;;;3.50;0.90;;;18.70;42.30;;;;;;4522684;31;20615;-70
2022/04/10 10:26:06;;;;;;;4.68;0.77;;;18.80;42.30;;;;;;4522940;31;20511;-70
2022/04/10 10:28:35;;;;;;;5.97;1.10;;;18.70;42.20;;;;;;4537275;31;20068;-70
2022/04/10 10:31:20;;;;;;;6.20;1.05;;;18.70;42.30;;;;;;4539301;31;20138;-70
2022/04/10 10:33:57;;;;;;;2.65;0.90;;;18.70;42.20;;;;;;4524605;31;20096;-70
2022/04/10 10:36:28;;;;;;;4.85;1.08;;;18.70;42.20;;;;;;4537088;31;20571;-71
2022/04/10 10:38:56;;;;;;;4.38;1.13;;;18.70;42.20;;;;;;4524366;31;20084;-70
2022/04/10 10:41:21;;;;;;;5.10;0.90;;;18.70;42.10;;;;;;4539500;31;20156;-71
2022/04/10 10:43:48;;;;;;;2.75;1.13;;;18.70;42.00;;;;;;4530158;31;20590;-70
2022/04/10 10:46:26;;;;;;;6.32;1.17;;;18.60;41.70;;;;;;4526117;31;20649;-70
2022/04/10 10:49:15;;;;;;;6.07;0.82;;;18.60;41.70;;;;;;4528246;31;20083;-70
2022/04/10 10:51:44;;;;;;;2.85;0.90;;;18.60;41.10;;;;;;4528108;31;20253;-70
2022/04/10 10:54:18;;;;;;;3.08;1.02;;;18.60;41.40;;;;;;4525256;31;20134;-70
2022/04/10 10:56:46;;;;;;;6.82;1.27;;;18.60;41.40;;;;;;4525164;31;20561;-69
2022/04/10 10:59:26;;;;;;;7.00;1.27;;;18.50;41.50;;;;;;4525808;31;20840;-70
2022/04/10 11:02:00;;;;;;;9.85;1.08;;;18.50;41.10;;;;;;4526176;31;20103;-70
2022/04/10 11:04:28;;;;;;;3.55;0.90;;;18.50;41.30;;;;;;4526257;31;20099;-71
2022/04/10 11:06:54;;;;;;;4.70;1.10;;;18.50;41.30;;;;;;4526383;31;20092;-71
2022/04/10 11:09:22;;;;;;;5.13;1.15;;;18.50;41.30;;;;;;4511337;31;20421;-70
2022/04/10 11:11:49;;;;;;;8.18;1.30;;;18.50;41.40;;;;;;4511122;31;20073;-70
2022/04/10 11:14:39;;;;;;;5.28;1.23;;;18.50;41.40;;;;;;4526072;31;20247;-70
2022/04/10 11:17:15;;;;;;;4.20;0.90;;;18.50;41.40;;;;;;4525924;31;20141;-70
2022/04/10 11:19:45;;;;;;;4.55;1.23;;;18.50;41.50;;;;;;4526374;31;20084;-70
2022/04/10 11:22:19;;;;;;;5.47;1.10;;;18.40;41.60;;;;;;4525648;31;20294;-70
2022/04/10 11:24:45;;;;;;;4.00;0.90;;;18.40;41.40;;;;;;4526155;31;20088;-70
2022/04/10 11:27:13;;;;;;;5.95;1.40;;;18.40;41.50;;;;;;4526190;31;20468;-70
2022/04/10 11:29:50;;;;;;;5.57;0.95;;;18.40;41.50;;;;;;4526062;31;20083;-70
2022/04/10 11:32:20;;;;;;;4.78;1.30;;;18.40;41.40;;;;;;4525919;31;20072;-71
2022/04/10 11:34:58;;;;;;;5.28;1.10;;;18.40;41.30;;;;;;4523962;31;20084;-68
2022/04/10 11:37:24;;;;;;;5.30;1.30;;;18.40;41.00;;;;;;4527609;31;20076;-69
2022/04/10 11:39:55;;;;;;;4.63;1.10;;;18.40;41.20;;;;;;4541792;31;20056;-69
2022/04/10 11:42:21;;;;;;;6.00;1.10;;;18.40;41.30;;;;;;4528437;31;20532;-71
2022/04/10 11:44:49;;;;;;;5.78;1.15;;;18.40;41.30;;;;;;4541997;31;20072;-69
2022/04/10 11:47:15;;;;;;;5.50;1.10;;;18.40;42.30;;;;;;4541663;31;20160;-69
2022/04/10 11:49:50;;;;;;;10.98;1.40;;;18.40;41.40;;;;;;4541635;31;20229;-71
2022/04/10 11:52:19;;;;;;;6.25;1.33;;;18.40;41.50;;;;;;4542038;31;20090;-69
2022/04/10 11:54:46;;;;;;;7.45;1.50;;;18.30;41.50;;;;;;4542139;31;20099;-70
2022/04/10 11:57:11;;;;;;;8.57;1.80;;;18.40;41.50;;;;;;4513510;31;20081;-72
2022/04/10 11:59:39;;;;;;;5.85;1.25;;;18.40;41.60;;;;;;4524933;31;20095;-70
2022/04/10 12:02:08;;;;;;;5.57;1.40;;;18.30;41.50;;;;;;4541136;31;20091;-69
2022/04/10 12:04:36;;;;;;;6.97;1.45;;;18.40;41.60;;;;;;4526757;31;20164;-70
2022/04/10 12:07:19;;;;;;;10.30;1.40;;;18.30;41.60;;;;;;4541152;31;20091;-70
2022/04/10 12:09:47;;;;;;;8.23;1.73;;;18.30;41.50;;;;;;4540841;31;20246;-70
2022/04/10 12:12:14;;;;;;;2.75;1.05;;;18.30;41.50;;;;;;4526717;31;20605;-70
2022/04/10 12:14:40;;;;;;;9.93;1.33;;;18.30;41.40;;;;;;4540947;31;20225;-70
2022/04/10 12:17:13;;;;;;;5.35;1.00;;;18.30;41.30;;;;;;4526811;31;20072;-70
2022/04/10 12:19:39;;;;;;;16.92;1.77;;;18.30;41.20;;;;;;4540624;31;20083;-70
2022/04/10 12:22:07;;;;;;;7.97;1.20;;;18.30;41.30;;;;;;4513223;31;20119;-70
2022/04/10 12:24:37;;;;;;;10.48;1.38;;;18.30;41.20;;;;;;4541052;31;20425;-70
2022/04/10 12:27:06;;;;;;;6.80;1.30;;;18.30;41.20;;;;;;4541130;31;20509;-70
2022/04/10 12:29:34;;;;;;;5.60;1.10;;;18.30;41.20;;;;;;4526281;31;20168;-70
2022/04/10 12:32:00;;;;;;;3.53;1.17;;;18.30;41.10;;;;;;4541017;31;20088;-70
2022/04/10 12:34:40;;;;;;;7.40;1.23;;;18.30;41.10;;;;;;4526281;31;20226;-70
2022/04/10 12:37:08;;;;;;;5.55;1.05;;;18.30;40.90;;;;;;4540966;31;20413;-70
2022/04/10 12:39:34;;;;;;;4.93;1.33;;;18.30;40.90;;;;;;4540587;31;20096;-70
2022/04/10 12:42:08;;;;;;;5.65;1.30;;;18.30;41.00;;;;;;4531638;31;20083;-70
2022/04/10 12:44:39;;;;;;;4.35;0.93;;;18.30;40.90;;;;;;4510421;31;20234;-70
2022/04/10 12:47:07;;;;;;;7.60;1.30;;;18.30;40.90;;;;;;4510478;31;20084;-70
2022/04/10 12:49:34;;;;;;;5.15;1.17;;;18.30;40.90;;;;;;4509742;31;20189;-71
2022/04/10 12:52:04;;;;;;;6.15;1.08;;;18.30;40.90;;;;;;4524613;31;20509;-70
2022/04/10 12:54:41;;;;;;;5.00;1.40;;;18.30;40.80;;;;;;4510257;31;20823;-70